sensor_id;sensor_type;location;lat;lon;timestamp;P1;durP1;ratioP1;P2;durP2;ratioP2
15449;SDS011;7826;49.784;9.934;2024-01-15T00:00:25;14.90;;;8.03;;
15449;SDS011;7826;49.784;9.934;2024-01-15T00:02:51;17.53;;;9.10;;
15449;SDS011;7826;49.784;9.934;2024-01-15T00:05:18;16.97;;;9.63;;
15449;SDS011;7826;49.784;9.934;2024-01-15T00:07:44;19.60;;;9.83;;
15449;SDS011;7826;49.784;9.934;2024-01-15T00:10:10;15.43;;;9.50;;
15449;SDS011;7826;49.784;9.934;2024-01-15T00:12:36;15.57;;;9.00;;
15449;SDS011;7826;49.784;9.934;2024-01-15T00:15:02;14.33;;;8.17;;
15449;SDS011;7826;49.784;9.934;2024-01-15T00:17:29;14.43;;;9.27;;
15449;SDS011;7826;49.784;9.934;2024-01-15T00:19:55;14.17;;;8.30;;
15449;SDS011;7826;49.784;9.934;2024-01-15T00:22:21;14.93;;;8.13;;
15449;SDS011;7826;49.784;9.934;2024-01-15T00:24:47;12.53;;;7.93;;
15449;SDS011;7826;49.784;9.934;2024-01-15T00:27:13;15.40;;;8.57;;
15449;SDS011;7826;49.784;9.934;2024-01-15T00:29:39;14.97;;;8.23;;
15449;SDS011;7826;49.784;9.934;2024-01-15T00:32:05;10.53;;;6.77;;
15449;SDS011;7826;49.784;9.934;2024-01-15T00:34:31;15.33;;;8.80;;
15449;SDS011;7826;49.784;9.934;2024-01-15T00:36:57;13.93;;;8.17;;
15449;SDS011;7826;49.784;9.934;2024-01-15T00:39:24;11.70;;;7.60;;
15449;SDS011;7826;49.784;9.934;2024-01-15T00:41:50;13.47;;;7.57;;
15449;SDS011;7826;49.784;9.934;2024-01-15T00:44:16;11.53;;;6.50;;
15449;SDS011;7826;49.784;9.934;2024-01-15T00:46:43;13.80;;;8.13;;
15449;SDS011;7826;49.784;9.934;2024-01-15T00:49:11;14.87;;;8.23;;
15449;SDS011;7826;49.784;9.934;2024-01-15T00:51:38;10.87;;;6.70;;
15449;SDS011;7826;49.784;9.934;2024-01-15T00:54:05;13.00;;;7.43;;
15449;SDS011;7826;49.784;9.934;2024-01-15T00:56:32;15.17;;;8.63;;
15449;SDS011;7826;49.784;9.934;2024-01-15T00:58:59;12.90;;;7.83;;
15449;SDS011;7826;49.784;9.934;2024-01-15T01:01:26;15.73;;;8.30;;
15449;SDS011;7826;49.784;9.934;2024-01-15T01:03:52;12.43;;;8.40;;
15449;SDS011;7826;49.784;9.934;2024-01-15T01:06:18;12.40;;;6.77;;
15449;SDS011;7826;49.784;9.934;2024-01-15T01:08:44;14.17;;;7.20;;
15449;SDS011;7826;49.784;9.934;2024-01-15T01:11:15;14.87;;;8.00;;
15449;SDS011;7826;49.784;9.934;2024-01-15T01:13:41;11.80;;;6.83;;
15449;SDS011;7826;49.784;9.934;2024-01-15T01:16:07;17.27;;;9.03;;
15449;SDS011;7826;49.784;9.934;2024-01-15T01:18:34;17.10;;;9.17;;
15449;SDS011;7826;49.784;9.934;2024-01-15T01:21:00;13.60;;;8.13;;
15449;SDS011;7826;49.784;9.934;2024-01-15T01:23:27;14.70;;;9.07;;
15449;SDS011;7826;49.784;9.934;2024-01-15T01:25:53;16.03;;;8.27;;
15449;SDS011;7826;49.784;9.934;2024-01-15T01:28:19;14.50;;;8.57;;
15449;SDS011;7826;49.784;9.934;2024-01-15T01:30:45;18.03;;;9.03;;
15449;SDS011;7826;49.784;9.934;2024-01-15T01:33:11;15.80;;;9.20;;
15449;SDS011;7826;49.784;9.934;2024-01-15T01:35:37;17.17;;;9.40;;
15449;SDS011;7826;49.784;9.934;2024-01-15T01:38:04;15.20;;;7.20;;
15449;SDS011;7826;49.784;9.934;2024-01-15T01:40:30;17.63;;;9.80;;
15449;SDS011;7826;49.784;9.934;2024-01-15T01:42:56;13.17;;;7.47;;
15449;SDS011;7826;49.784;9.934;2024-01-15T01:45:22;17.03;;;9.67;;
15449;SDS011;7826;49.784;9.934;2024-01-15T01:47:48;13.17;;;7.37;;
15449;SDS011;7826;49.784;9.934;2024-01-15T01:50:14;16.83;;;8.73;;
15449;SDS011;7826;49.784;9.934;2024-01-15T01:52:41;13.70;;;8.27;;
15449;SDS011;7826;49.784;9.934;2024-01-15T01:55:07;18.17;;;9.00;;
15449;SDS011;7826;49.784;9.934;2024-01-15T01:57:36;16.87;;;8.67;;
15449;SDS011;7826;49.784;9.934;2024-01-15T02:00:03;15.37;;;8.67;;
15449;SDS011;7826;49.784;9.934;2024-01-15T02:02:30;15.97;;;8.87;;
15449;SDS011;7826;49.784;9.934;2024-01-15T02:04:57;16.30;;;8.90;;
15449;SDS011;7826;49.784;9.934;2024-01-15T02:07:23;14.00;;;9.00;;
15449;SDS011;7826;49.784;9.934;2024-01-15T02:09:50;12.90;;;7.83;;
15449;SDS011;7826;49.784;9.934;2024-01-15T02:12:16;15.80;;;8.33;;
15449;SDS011;7826;49.784;9.934;2024-01-15T02:14:42;15.10;;;7.27;;
15449;SDS011;7826;49.784;9.934;2024-01-15T02:17:08;15.10;;;8.57;;
15449;SDS011;7826;49.784;9.934;2024-01-15T02:19:34;14.87;;;9.20;;
15449;SDS011;7826;49.784;9.934;2024-01-15T02:22:01;11.73;;;6.93;;
15449;SDS011;7826;49.784;9.934;2024-01-15T02:24:27;17.87;;;8.77;;
15449;SDS011;7826;49.784;9.934;2024-01-15T02:26:53;12.90;;;7.10;;
15449;SDS011;7826;49.784;9.934;2024-01-15T02:29:19;15.40;;;8.90;;
15449;SDS011;7826;49.784;9.934;2024-01-15T02:31:45;20.57;;;8.27;;
15449;SDS011;7826;49.784;9.934;2024-01-15T02:34:11;14.37;;;7.03;;
15449;SDS011;7826;49.784;9.934;2024-01-15T02:36:37;13.40;;;7.57;;
15449;SDS011;7826;49.784;9.934;2024-01-15T02:39:04;14.13;;;8.03;;
15449;SDS011;7826;49.784;9.934;2024-01-15T02:41:30;14.33;;;8.30;;
15449;SDS011;7826;49.784;9.934;2024-01-15T02:43:56;10.87;;;6.53;;
15449;SDS011;7826;49.784;9.934;2024-01-15T02:46:22;12.83;;;7.03;;
15449;SDS011;7826;49.784;9.934;2024-01-15T02:48:48;13.47;;;7.33;;
15449;SDS011;7826;49.784;9.934;2024-01-15T02:51:14;12.97;;;6.90;;
15449;SDS011;7826;49.784;9.934;2024-01-15T02:53:40;14.20;;;7.20;;
15449;SDS011;7826;49.784;9.934;2024-01-15T02:56:07;10.73;;;6.20;;
15449;SDS011;7826;49.784;9.934;2024-01-15T02:58:33;11.37;;;6.63;;
15449;SDS011;7826;49.784;9.934;2024-01-15T03:00:59;12.77;;;6.80;;
15449;SDS011;7826;49.784;9.934;2024-01-15T03:03:25;11.43;;;6.13;;
15449;SDS011;7826;49.784;9.934;2024-01-15T03:05:51;12.60;;;6.57;;
15449;SDS011;7826;49.784;9.934;2024-01-15T03:08:17;11.77;;;5.33;;
15449;SDS011;7826;49.784;9.934;2024-01-15T03:10:44;8.60;;;5.93;;
15449;SDS011;7826;49.784;9.934;2024-01-15T03:13:10;15.87;;;6.70;;
15449;SDS011;7826;49.784;9.934;2024-01-15T03:15:36;12.50;;;6.20;;
15449;SDS011;7826;49.784;9.934;2024-01-15T03:18:02;12.80;;;5.87;;
15449;SDS011;7826;49.784;9.934;2024-01-15T03:20:28;9.83;;;6.50;;
15449;SDS011;7826;49.784;9.934;2024-01-15T03:22:54;9.53;;;6.03;;
15449;SDS011;7826;49.784;9.934;2024-01-15T03:25:20;13.40;;;7.03;;
15449;SDS011;7826;49.784;9.934;2024-01-15T03:27:47;10.77;;;6.23;;
15449;SDS011;7826;49.784;9.934;2024-01-15T03:30:13;9.53;;;5.60;;
15449;SDS011;7826;49.784;9.934;2024-01-15T03:32:39;10.97;;;5.83;;
15449;SDS011;7826;49.784;9.934;2024-01-15T03:35:05;10.83;;;5.70;;
15449;SDS011;7826;49.784;9.934;2024-01-15T03:37:32;10.93;;;5.67;;
15449;SDS011;7826;49.784;9.934;2024-01-15T03:39:58;10.80;;;5.20;;
15449;SDS011;7826;49.784;9.934;2024-01-15T03:42:24;11.07;;;5.90;;
15449;SDS011;7826;49.784;9.934;2024-01-15T03:44:50;7.77;;;4.83;;
15449;SDS011;7826;49.784;9.934;2024-01-15T03:47:16;8.57;;;5.43;;
15449;SDS011;7826;49.784;9.934;2024-01-15T03:49:42;7.43;;;3.87;;
15449;SDS011;7826;49.784;9.934;2024-01-15T03:52:09;9.37;;;4.50;;
15449;SDS011;7826;49.784;9.934;2024-01-15T03:54:35;11.10;;;4.80;;
15449;SDS011;7826;49.784;9.934;2024-01-15T03:57:01;8.47;;;4.67;;
15449;SDS011;7826;49.784;9.934;2024-01-15T03:59:27;10.37;;;4.80;;
15449;SDS011;7826;49.784;9.934;2024-01-15T04:01:53;6.23;;;4.03;;
15449;SDS011;7826;49.784;9.934;2024-01-15T04:04:19;9.27;;;4.53;;
15449;SDS011;7826;49.784;9.934;2024-01-15T04:06:47;7.67;;;4.07;;
15449;SDS011;7826;49.784;9.934;2024-01-15T04:09:13;6.63;;;3.23;;
15449;SDS011;7826;49.784;9.934;2024-01-15T04:11:39;7.00;;;3.33;;
15449;SDS011;7826;49.784;9.934;2024-01-15T04:14:06;7.60;;;4.17;;
15449;SDS011;7826;49.784;9.934;2024-01-15T04:16:32;4.33;;;3.20;;
15449;SDS011;7826;49.784;9.934;2024-01-15T04:18:58;6.50;;;3.20;;
15449;SDS011;7826;49.784;9.934;2024-01-15T04:21:24;8.10;;;4.03;;
15449;SDS011;7826;49.784;9.934;2024-01-15T04:23:50;6.27;;;2.80;;
15449;SDS011;7826;49.784;9.934;2024-01-15T04:26:16;5.27;;;3.33;;
15449;SDS011;7826;49.784;9.934;2024-01-15T04:28:42;6.87;;;3.93;;
15449;SDS011;7826;49.784;9.934;2024-01-15T04:31:08;9.77;;;3.60;;
15449;SDS011;7826;49.784;9.934;2024-01-15T04:33:35;6.90;;;3.33;;
15449;SDS011;7826;49.784;9.934;2024-01-15T04:36:01;4.30;;;3.33;;
15449;SDS011;7826;49.784;9.934;2024-01-15T04:38:29;4.30;;;3.10;;
15449;SDS011;7826;49.784;9.934;2024-01-15T04:40:55;7.80;;;3.30;;
15449;SDS011;7826;49.784;9.934;2024-01-15T04:43:21;8.83;;;2.50;;
15449;SDS011;7826;49.784;9.934;2024-01-15T04:45:47;9.27;;;3.57;;
15449;SDS011;7826;49.784;9.934;2024-01-15T04:48:13;10.60;;;3.20;;
15449;SDS011;7826;49.784;9.934;2024-01-15T04:50:39;4.77;;;2.80;;
15449;SDS011;7826;49.784;9.934;2024-01-15T04:53:06;7.73;;;3.47;;
15449;SDS011;7826;49.784;9.934;2024-01-15T04:55:32;8.30;;;3.60;;
15449;SDS011;7826;49.784;9.934;2024-01-15T04:57:58;6.17;;;2.97;;
15449;SDS011;7826;49.784;9.934;2024-01-15T05:00:24;10.60;;;2.83;;
15449;SDS011;7826;49.784;9.934;2024-01-15T05:02:51;10.00;;;3.10;;
15449;SDS011;7826;49.784;9.934;2024-01-15T05:05:17;7.77;;;3.10;;
15449;SDS011;7826;49.784;9.934;2024-01-15T05:07:43;7.43;;;3.20;;
15449;SDS011;7826;49.784;9.934;2024-01-15T05:10:09;8.53;;;3.80;;
15449;SDS011;7826;49.784;9.934;2024-01-15T05:12:35;10.40;;;3.50;;
15449;SDS011;7826;49.784;9.934;2024-01-15T05:15:01;7.07;;;3.37;;
15449;SDS011;7826;49.784;9.934;2024-01-15T05:17:28;6.20;;;3.13;;
15449;SDS011;7826;49.784;9.934;2024-01-15T05:19:54;6.63;;;3.60;;
15449;SDS011;7826;49.784;9.934;2024-01-15T05:22:20;5.77;;;3.43;;
15449;SDS011;7826;49.784;9.934;2024-01-15T05:24:46;7.37;;;3.47;;
15449;SDS011;7826;49.784;9.934;2024-01-15T05:27:13;5.57;;;3.00;;
15449;SDS011;7826;49.784;9.934;2024-01-15T05:29:39;4.77;;;3.20;;
15449;SDS011;7826;49.784;9.934;2024-01-15T05:32:05;5.37;;;3.10;;
15449;SDS011;7826;49.784;9.934;2024-01-15T05:34:31;4.13;;;2.40;;
15449;SDS011;7826;49.784;9.934;2024-01-15T05:36:57;6.70;;;3.20;;
15449;SDS011;7826;49.784;9.934;2024-01-15T05:39:24;7.27;;;3.50;;
15449;SDS011;7826;49.784;9.934;2024-01-15T05:41:50;8.40;;;3.17;;
15449;SDS011;7826;49.784;9.934;2024-01-15T05:44:16;9.03;;;3.17;;
15449;SDS011;7826;49.784;9.934;2024-01-15T05:46:42;3.03;;;2.30;;
15449;SDS011;7826;49.784;9.934;2024-01-15T05:49:08;6.23;;;2.70;;
15449;SDS011;7826;49.784;9.934;2024-01-15T05:51:34;7.93;;;2.87;;
15449;SDS011;7826;49.784;9.934;2024-01-15T05:54:01;10.03;;;3.00;;
15449;SDS011;7826;49.784;9.934;2024-01-15T05:56:27;7.80;;;2.47;;
15449;SDS011;7826;49.784;9.934;2024-01-15T05:58:53;5.57;;;2.40;;
15449;SDS011;7826;49.784;9.934;2024-01-15T06:01:19;7.80;;;2.07;;
15449;SDS011;7826;49.784;9.934;2024-01-15T06:03:45;9.10;;;2.40;;
15449;SDS011;7826;49.784;9.934;2024-01-15T06:06:11;8.47;;;2.93;;
15449;SDS011;7826;49.784;9.934;2024-01-15T06:08:37;4.60;;;2.60;;
15449;SDS011;7826;49.784;9.934;2024-01-15T06:11:04;4.33;;;2.40;;
15449;SDS011;7826;49.784;9.934;2024-01-15T06:13:31;10.87;;;2.60;;
15449;SDS011;7826;49.784;9.934;2024-01-15T06:15:58;7.93;;;2.27;;
15449;SDS011;7826;49.784;9.934;2024-01-15T06:18:24;4.20;;;2.23;;
15449;SDS011;7826;49.784;9.934;2024-01-15T06:20:50;6.97;;;2.20;;
15449;SDS011;7826;49.784;9.934;2024-01-15T06:23:16;12.07;;;2.90;;
15449;SDS011;7826;49.784;9.934;2024-01-15T06:25:42;2.53;;;2.07;;
15449;SDS011;7826;49.784;9.934;2024-01-15T06:28:08;5.17;;;2.47;;
15449;SDS011;7826;49.784;9.934;2024-01-15T06:30:35;4.57;;;2.00;;
15449;SDS011;7826;49.784;9.934;2024-01-15T06:33:01;4.03;;;1.87;;
15449;SDS011;7826;49.784;9.934;2024-01-15T06:35:27;4.93;;;2.13;;
15449;SDS011;7826;49.784;9.934;2024-01-15T06:37:53;6.63;;;2.87;;
15449;SDS011;7826;49.784;9.934;2024-01-15T06:40:19;8.37;;;2.47;;
15449;SDS011;7826;49.784;9.934;2024-01-15T06:42:46;6.33;;;2.33;;
15449;SDS011;7826;49.784;9.934;2024-01-15T06:45:12;4.30;;;2.50;;
15449;SDS011;7826;49.784;9.934;2024-01-15T06:47:38;6.80;;;2.30;;
15449;SDS011;7826;49.784;9.934;2024-01-15T06:50:04;4.20;;;2.50;;
15449;SDS011;7826;49.784;9.934;2024-01-15T06:52:32;3.23;;;2.17;;
15449;SDS011;7826;49.784;9.934;2024-01-15T06:54:58;5.90;;;2.00;;
15449;SDS011;7826;49.784;9.934;2024-01-15T06:57:24;3.53;;;2.43;;
15449;SDS011;7826;49.784;9.934;2024-01-15T06:59:50;5.23;;;2.33;;
15449;SDS011;7826;49.784;9.934;2024-01-15T07:02:16;6.77;;;2.67;;
15449;SDS011;7826;49.784;9.934;2024-01-15T07:04:43;8.33;;;2.23;;
15449;SDS011;7826;49.784;9.934;2024-01-15T07:07:09;2.93;;;1.80;;
15449;SDS011;7826;49.784;9.934;2024-01-15T07:09:35;7.53;;;2.37;;
15449;SDS011;7826;49.784;9.934;2024-01-15T07:12:01;7.73;;;2.27;;
15449;SDS011;7826;49.784;9.934;2024-01-15T07:14:27;7.27;;;2.30;;
15449;SDS011;7826;49.784;9.934;2024-01-15T07:16:53;12.80;;;2.70;;
15449;SDS011;7826;49.784;9.934;2024-01-15T07:19:20;7.63;;;2.23;;
15449;SDS011;7826;49.784;9.934;2024-01-15T07:21:46;8.47;;;2.53;;
15449;SDS011;7826;49.784;9.934;2024-01-15T07:24:12;4.67;;;1.73;;
15449;SDS011;7826;49.784;9.934;2024-01-15T07:26:38;4.70;;;2.07;;
15449;SDS011;7826;49.784;9.934;2024-01-15T07:29:05;7.17;;;2.47;;
15449;SDS011;7826;49.784;9.934;2024-01-15T07:31:31;7.13;;;2.07;;
15449;SDS011;7826;49.784;9.934;2024-01-15T07:33:58;4.10;;;2.10;;
15449;SDS011;7826;49.784;9.934;2024-01-15T07:36:25;2.53;;;1.57;;
15449;SDS011;7826;49.784;9.934;2024-01-15T07:38:51;5.53;;;2.10;;
15449;SDS011;7826;49.784;9.934;2024-01-15T07:41:18;4.33;;;2.30;;
15449;SDS011;7826;49.784;9.934;2024-01-15T07:43:44;8.90;;;2.30;;
15449;SDS011;7826;49.784;9.934;2024-01-15T07:46:10;4.83;;;2.23;;
15449;SDS011;7826;49.784;9.934;2024-01-15T07:48:36;6.57;;;2.33;;
15449;SDS011;7826;49.784;9.934;2024-01-15T07:51:02;2.77;;;2.10;;
15449;SDS011;7826;49.784;9.934;2024-01-15T07:53:29;9.30;;;2.90;;
15449;SDS011;7826;49.784;9.934;2024-01-15T07:55:56;3.07;;;1.93;;
15449;SDS011;7826;49.784;9.934;2024-01-15T07:58:22;12.77;;;2.80;;
15449;SDS011;7826;49.784;9.934;2024-01-15T08:00:48;6.63;;;1.83;;
15449;SDS011;7826;49.784;9.934;2024-01-15T08:03:14;5.73;;;1.80;;
15449;SDS011;7826;49.784;9.934;2024-01-15T08:05:40;7.97;;;2.17;;
15449;SDS011;7826;49.784;9.934;2024-01-15T08:08:06;9.10;;;2.30;;
15449;SDS011;7826;49.784;9.934;2024-01-15T08:10:32;4.70;;;2.10;;
15449;SDS011;7826;49.784;9.934;2024-01-15T08:12:59;4.93;;;1.83;;
15449;SDS011;7826;49.784;9.934;2024-01-15T08:15:25;7.83;;;2.63;;
15449;SDS011;7826;49.784;9.934;2024-01-15T08:17:51;3.03;;;1.90;;
15449;SDS011;7826;49.784;9.934;2024-01-15T08:20:17;5.50;;;2.10;;
15449;SDS011;7826;49.784;9.934;2024-01-15T08:22:43;6.40;;;2.20;;
15449;SDS011;7826;49.784;9.934;2024-01-15T08:25:09;5.53;;;2.07;;
15449;SDS011;7826;49.784;9.934;2024-01-15T08:27:36;7.33;;;2.40;;
15449;SDS011;7826;49.784;9.934;2024-01-15T08:30:02;6.23;;;2.20;;
15449;SDS011;7826;49.784;9.934;2024-01-15T08:32:29;3.93;;;2.53;;
15449;SDS011;7826;49.784;9.934;2024-01-15T08:34:55;5.80;;;2.67;;
15449;SDS011;7826;49.784;9.934;2024-01-15T08:37:22;5.57;;;1.87;;
15449;SDS011;7826;49.784;9.934;2024-01-15T08:39:48;5.57;;;2.30;;
15449;SDS011;7826;49.784;9.934;2024-01-15T08:42:14;4.20;;;2.43;;
15449;SDS011;7826;49.784;9.934;2024-01-15T08:44:40;4.37;;;2.00;;
15449;SDS011;7826;49.784;9.934;2024-01-15T08:47:08;5.60;;;2.20;;
15449;SDS011;7826;49.784;9.934;2024-01-15T08:49:34;4.43;;;2.03;;
15449;SDS011;7826;49.784;9.934;2024-01-15T08:52:01;4.40;;;2.40;;
15449;SDS011;7826;49.784;9.934;2024-01-15T08:54:27;8.30;;;2.70;;
15449;SDS011;7826;49.784;9.934;2024-01-15T08:56:53;5.23;;;2.33;;
15449;SDS011;7826;49.784;9.934;2024-01-15T08:59:20;7.47;;;2.87;;
15449;SDS011;7826;49.784;9.934;2024-01-15T09:01:50;6.93;;;2.50;;
15449;SDS011;7826;49.784;9.934;2024-01-15T09:04:17;3.80;;;2.13;;
15449;SDS011;7826;49.784;9.934;2024-01-15T09:06:46;7.83;;;3.47;;
15449;SDS011;7826;49.784;9.934;2024-01-15T09:09:12;8.30;;;2.50;;
15449;SDS011;7826;49.784;9.934;2024-01-15T09:11:40;8.70;;;2.37;;
15449;SDS011;7826;49.784;9.934;2024-01-15T09:14:06;5.33;;;2.67;;
15449;SDS011;7826;49.784;9.934;2024-01-15T09:16:33;5.10;;;2.80;;
15449;SDS011;7826;49.784;9.934;2024-01-15T09:19:00;2.67;;;1.80;;
15449;SDS011;7826;49.784;9.934;2024-01-15T09:21:26;2.30;;;1.97;;
15449;SDS011;7826;49.784;9.934;2024-01-15T09:23:52;6.93;;;2.67;;
15449;SDS011;7826;49.784;9.934;2024-01-15T09:26:18;6.17;;;2.10;;
15449;SDS011;7826;49.784;9.934;2024-01-15T09:28:44;3.30;;;2.10;;
15449;SDS011;7826;49.784;9.934;2024-01-15T09:31:10;6.43;;;4.43;;
15449;SDS011;7826;49.784;9.934;2024-01-15T09:33:37;7.77;;;2.47;;
15449;SDS011;7826;49.784;9.934;2024-01-15T09:36:03;3.57;;;2.23;;
15449;SDS011;7826;49.784;9.934;2024-01-15T09:38:30;6.20;;;2.70;;
15449;SDS011;7826;49.784;9.934;2024-01-15T09:40:57;3.73;;;1.50;;
15449;SDS011;7826;49.784;9.934;2024-01-15T09:43:24;4.33;;;2.30;;
15449;SDS011;7826;49.784;9.934;2024-01-15T09:45:50;5.77;;;2.23;;
15449;SDS011;7826;49.784;9.934;2024-01-15T09:48:16;2.23;;;1.67;;
15449;SDS011;7826;49.784;9.934;2024-01-15T09:50:43;7.00;;;2.57;;
15449;SDS011;7826;49.784;9.934;2024-01-15T09:53:09;2.53;;;2.17;;
15449;SDS011;7826;49.784;9.934;2024-01-15T09:55:36;3.87;;;2.70;;
15449;SDS011;7826;49.784;9.934;2024-01-15T09:58:05;3.00;;;2.07;;
15449;SDS011;7826;49.784;9.934;2024-01-15T10:00:31;4.13;;;2.23;;
15449;SDS011;7826;49.784;9.934;2024-01-15T10:03:02;6.50;;;2.80;;
15449;SDS011;7826;49.784;9.934;2024-01-15T10:05:29;4.43;;;2.20;;
15449;SDS011;7826;49.784;9.934;2024-01-15T10:07:56;5.73;;;2.33;;
15449;SDS011;7826;49.784;9.934;2024-01-15T10:10:23;2.90;;;2.17;;
15449;SDS011;7826;49.784;9.934;2024-01-15T10:12:49;2.83;;;2.57;;
15449;SDS011;7826;49.784;9.934;2024-01-15T10:15:16;4.67;;;2.40;;
15449;SDS011;7826;49.784;9.934;2024-01-15T10:17:42;5.40;;;2.30;;
15449;SDS011;7826;49.784;9.934;2024-01-15T10:20:09;4.93;;;2.43;;
15449;SDS011;7826;49.784;9.934;2024-01-15T10:22:39;2.53;;;2.10;;
15449;SDS011;7826;49.784;9.934;2024-01-15T10:25:14;4.03;;;2.33;;
15449;SDS011;7826;49.784;9.934;2024-01-15T10:27:41;3.47;;;2.23;;
15449;SDS011;7826;49.784;9.934;2024-01-15T10:30:08;6.50;;;2.60;;
15449;SDS011;7826;49.784;9.934;2024-01-15T10:32:35;3.27;;;2.30;;
15449;SDS011;7826;49.784;9.934;2024-01-15T10:35:01;3.87;;;1.77;;
15449;SDS011;7826;49.784;9.934;2024-01-15T10:37:28;4.20;;;1.90;;
15449;SDS011;7826;49.784;9.934;2024-01-15T10:39:54;4.17;;;2.60;;
15449;SDS011;7826;49.784;9.934;2024-01-15T10:42:20;2.67;;;2.00;;
15449;SDS011;7826;49.784;9.934;2024-01-15T10:44:46;3.70;;;1.80;;
15449;SDS011;7826;49.784;9.934;2024-01-15T10:47:12;5.13;;;2.30;;
15449;SDS011;7826;49.784;9.934;2024-01-15T10:49:40;4.17;;;1.70;;
15449;SDS011;7826;49.784;9.934;2024-01-15T10:52:07;2.60;;;2.07;;
15449;SDS011;7826;49.784;9.934;2024-01-15T10:54:33;2.47;;;1.90;;
15449;SDS011;7826;49.784;9.934;2024-01-15T10:57:00;2.90;;;1.73;;
15449;SDS011;7826;49.784;9.934;2024-01-15T10:59:28;4.67;;;2.20;;
15449;SDS011;7826;49.784;9.934;2024-01-15T11:01:54;3.73;;;1.93;;
15449;SDS011;7826;49.784;9.934;2024-01-15T11:04:21;2.87;;;2.33;;
15449;SDS011;7826;49.784;9.934;2024-01-15T11:06:52;7.93;;;2.70;;
15449;SDS011;7826;49.784;9.934;2024-01-15T11:09:19;5.53;;;2.70;;
15449;SDS011;7826;49.784;9.934;2024-01-15T11:11:45;5.63;;;2.97;;
15449;SDS011;7826;49.784;9.934;2024-01-15T11:17:04;5.70;;;2.90;;
15449;SDS011;7826;49.784;9.934;2024-01-15T11:19:38;6.33;;;3.17;;
15449;SDS011;7826;49.784;9.934;2024-01-15T11:22:08;5.40;;;3.10;;
15449;SDS011;7826;49.784;9.934;2024-01-15T11:24:38;6.97;;;3.23;;
15449;SDS011;7826;49.784;9.934;2024-01-15T11:27:05;6.47;;;2.77;;
15449;SDS011;7826;49.784;9.934;2024-01-15T11:29:36;5.97;;;2.73;;
15449;SDS011;7826;49.784;9.934;2024-01-15T11:32:08;7.63;;;2.73;;
15449;SDS011;7826;49.784;9.934;2024-01-15T11:34:54;5.97;;;3.07;;
15449;SDS011;7826;49.784;9.934;2024-01-15T11:37:24;6.43;;;4.03;;
15449;SDS011;7826;49.784;9.934;2024-01-15T11:39:52;5.13;;;3.33;;
15449;SDS011;7826;49.784;9.934;2024-01-15T11:42:19;6.70;;;3.73;;
15449;SDS011;7826;49.784;9.934;2024-01-15T11:44:47;4.10;;;3.23;;
15449;SDS011;7826;49.784;9.934;2024-01-15T11:47:14;7.63;;;3.90;;
15449;SDS011;7826;49.784;9.934;2024-01-15T11:49:53;2.67;;;2.47;;
15449;SDS011;7826;49.784;9.934;2024-01-15T11:52:26;4.80;;;3.27;;
15449;SDS011;7826;49.784;9.934;2024-01-15T11:55:01;5.43;;;3.67;;
15449;SDS011;7826;49.784;9.934;2024-01-15T12:00:17;4.93;;;3.30;;
15449;SDS011;7826;49.784;9.934;2024-01-15T12:02:45;3.67;;;2.87;;
15449;SDS011;7826;49.784;9.934;2024-01-15T12:05:12;5.60;;;2.80;;
15449;SDS011;7826;49.784;9.934;2024-01-15T12:07:44;4.87;;;3.00;;
15449;SDS011;7826;49.784;9.934;2024-01-15T12:10:17;3.73;;;2.57;;
15449;SDS011;7826;49.784;9.934;2024-01-15T12:15:31;3.67;;;2.27;;
15449;SDS011;7826;49.784;9.934;2024-01-15T12:17:59;2.80;;;2.33;;
15449;SDS011;7826;49.784;9.934;2024-01-15T12:20:28;2.60;;;2.20;;
15449;SDS011;7826;49.784;9.934;2024-01-15T12:22:55;2.50;;;2.30;;
15449;SDS011;7826;49.784;9.934;2024-01-15T12:25:21;2.73;;;1.80;;
15449;SDS011;7826;49.784;9.934;2024-01-15T12:27:49;4.07;;;2.23;;
15449;SDS011;7826;49.784;9.934;2024-01-15T12:30:15;6.07;;;2.50;;
15449;SDS011;7826;49.784;9.934;2024-01-15T12:32:42;4.60;;;2.43;;
15449;SDS011;7826;49.784;9.934;2024-01-15T12:35:09;3.13;;;2.80;;
15449;SDS011;7826;49.784;9.934;2024-01-15T12:37:37;3.30;;;2.63;;
15449;SDS011;7826;49.784;9.934;2024-01-15T12:40:04;4.03;;;2.50;;
15449;SDS011;7826;49.784;9.934;2024-01-15T12:42:32;4.43;;;2.30;;
15449;SDS011;7826;49.784;9.934;2024-01-15T12:45:03;4.60;;;2.70;;
15449;SDS011;7826;49.784;9.934;2024-01-15T12:47:31;4.63;;;2.90;;
15449;SDS011;7826;49.784;9.934;2024-01-15T12:49:57;7.77;;;3.37;;
15449;SDS011;7826;49.784;9.934;2024-01-15T12:52:28;7.97;;;3.33;;
15449;SDS011;7826;49.784;9.934;2024-01-15T12:54:55;6.03;;;3.83;;
15449;SDS011;7826;49.784;9.934;2024-01-15T12:57:21;5.27;;;3.07;;
15449;SDS011;7826;49.784;9.934;2024-01-15T12:59:48;6.97;;;3.67;;
15449;SDS011;7826;49.784;9.934;2024-01-15T13:02:18;7.10;;;3.70;;
15449;SDS011;7826;49.784;9.934;2024-01-15T13:04:44;6.43;;;3.80;;
15449;SDS011;7826;49.784;9.934;2024-01-15T13:07:10;6.77;;;4.07;;
15449;SDS011;7826;49.784;9.934;2024-01-15T13:09:37;8.03;;;3.90;;
15449;SDS011;7826;49.784;9.934;2024-01-15T13:12:03;8.57;;;4.13;;
15449;SDS011;7826;49.784;9.934;2024-01-15T13:14:29;6.17;;;3.73;;
15449;SDS011;7826;49.784;9.934;2024-01-15T13:16:56;6.67;;;3.73;;
15449;SDS011;7826;49.784;9.934;2024-01-15T13:19:22;7.13;;;3.90;;
15449;SDS011;7826;49.784;9.934;2024-01-15T13:21:48;5.83;;;3.43;;
15449;SDS011;7826;49.784;9.934;2024-01-15T13:24:19;8.73;;;3.83;;
15449;SDS011;7826;49.784;9.934;2024-01-15T13:26:46;3.57;;;3.10;;
15449;SDS011;7826;49.784;9.934;2024-01-15T13:29:12;6.17;;;3.70;;
15449;SDS011;7826;49.784;9.934;2024-01-15T13:31:39;8.87;;;3.87;;
15449;SDS011;7826;49.784;9.934;2024-01-15T13:34:05;7.63;;;3.63;;
15449;SDS011;7826;49.784;9.934;2024-01-15T13:36:32;8.90;;;3.67;;
15449;SDS011;7826;49.784;9.934;2024-01-15T13:38:59;6.57;;;3.60;;
15449;SDS011;7826;49.784;9.934;2024-01-15T13:41:25;6.87;;;3.23;;
15449;SDS011;7826;49.784;9.934;2024-01-15T13:43:53;6.47;;;3.60;;
15449;SDS011;7826;49.784;9.934;2024-01-15T13:46:24;7.23;;;3.30;;
15449;SDS011;7826;49.784;9.934;2024-01-15T13:48:53;7.73;;;3.60;;
15449;SDS011;7826;49.784;9.934;2024-01-15T13:51:21;8.83;;;3.67;;
15449;SDS011;7826;49.784;9.934;2024-01-15T13:53:47;5.50;;;2.70;;
15449;SDS011;7826;49.784;9.934;2024-01-15T13:56:14;6.87;;;3.50;;
15449;SDS011;7826;49.784;9.934;2024-01-15T13:58:41;5.67;;;2.80;;
15449;SDS011;7826;49.784;9.934;2024-01-15T14:01:08;5.67;;;3.10;;
15449;SDS011;7826;49.784;9.934;2024-01-15T14:03:35;6.27;;;3.23;;
15449;SDS011;7826;49.784;9.934;2024-01-15T14:06:01;7.67;;;3.37;;
15449;SDS011;7826;49.784;9.934;2024-01-15T14:08:34;5.50;;;2.60;;
15449;SDS011;7826;49.784;9.934;2024-01-15T14:11:02;4.97;;;2.97;;
15449;SDS011;7826;49.784;9.934;2024-01-15T14:13:29;4.70;;;3.13;;
15449;SDS011;7826;49.784;9.934;2024-01-15T14:15:55;7.67;;;2.73;;
15449;SDS011;7826;49.784;9.934;2024-01-15T14:18:21;7.40;;;3.37;;
15449;SDS011;7826;49.784;9.934;2024-01-15T14:20:47;6.30;;;3.43;;
15449;SDS011;7826;49.784;9.934;2024-01-15T14:23:13;8.50;;;3.40;;
15449;SDS011;7826;49.784;9.934;2024-01-15T14:25:40;6.97;;;3.20;;
15449;SDS011;7826;49.784;9.934;2024-01-15T14:28:06;4.90;;;3.40;;
15449;SDS011;7826;49.784;9.934;2024-01-15T14:30:32;7.13;;;3.57;;
15449;SDS011;7826;49.784;9.934;2024-01-15T14:32:58;9.63;;;3.27;;
15449;SDS011;7826;49.784;9.934;2024-01-15T14:35:24;8.07;;;3.10;;
15449;SDS011;7826;49.784;9.934;2024-01-15T14:37:50;6.83;;;3.47;;
15449;SDS011;7826;49.784;9.934;2024-01-15T14:40:16;8.77;;;3.70;;
15449;SDS011;7826;49.784;9.934;2024-01-15T14:42:43;8.10;;;3.83;;
15449;SDS011;7826;49.784;9.934;2024-01-15T14:45:10;4.93;;;3.03;;
15449;SDS011;7826;49.784;9.934;2024-01-15T14:47:39;8.30;;;4.40;;
15449;SDS011;7826;49.784;9.934;2024-01-15T14:50:06;5.47;;;3.73;;
15449;SDS011;7826;49.784;9.934;2024-01-15T14:52:33;5.10;;;3.47;;
15449;SDS011;7826;49.784;9.934;2024-01-15T14:54:59;10.03;;;3.70;;
15449;SDS011;7826;49.784;9.934;2024-01-15T14:57:26;7.70;;;4.07;;
15449;SDS011;7826;49.784;9.934;2024-01-15T14:59:52;7.43;;;3.20;;
15449;SDS011;7826;49.784;9.934;2024-01-15T15:02:18;7.73;;;3.57;;